createdAt,value
2017-09-19T00:01:59.719Z,41.30
2017-09-19T00:04:27.277Z,41.30
2017-09-19T00:06:54.865Z,41.20
2017-09-19T00:09:23.611Z,41.10
2017-09-19T00:11:51.205Z,41.20
2017-09-19T00:14:19.575Z,41.20
2017-09-19T00:16:47.205Z,41.30
2017-09-19T00:19:14.907Z,41.10
2017-09-19T00:21:43.240Z,41.40
2017-09-19T00:24:10.841Z,41.50
2017-09-19T00:26:38.411Z,41.30
2017-09-19T00:29:06.835Z,41.40
2017-09-19T00:31:34.449Z,41.40
2017-09-19T00:34:02.824Z,41.30
2017-09-19T00:36:31.203Z,41.30
2017-09-19T00:38:59.558Z,41.20
2017-09-19T00:41:27.168Z,41.30
2017-09-19T00:43:54.751Z,41.30
2017-09-19T00:46:22.342Z,41.20
2017-09-19T00:48:49.948Z,41.30
2017-09-19T00:51:17.546Z,41.20
2017-09-19T00:53:45.141Z,41.10
2017-09-19T00:56:13.619Z,41.20
2017-09-19T00:58:42.023Z,41.30
2017-09-19T01:01:09.597Z,41.20
2017-09-19T01:03:37.382Z,41.20
2017-09-19T01:06:05.023Z,41.30
2017-09-19T01:08:32.586Z,41.10
2017-09-19T01:11:00.136Z,41.20
2017-09-19T01:13:28.504Z,41.10
2017-09-19T01:15:56.082Z,41.10
2017-09-19T01:18:23.833Z,41.10
2017-09-19T01:20:51.415Z,41.00
2017-09-19T01:23:18.993Z,40.90
2017-09-19T01:25:46.647Z,41.10
2017-09-19T01:28:14.215Z,41.20
2017-09-19T01:30:41.841Z,41.30
2017-09-19T01:33:09.437Z,41.30
2017-09-19T01:35:37.033Z,41.30
2017-09-19T01:38:05.546Z,41.40
2017-09-19T01:40:33.161Z,41.30
2017-09-19T01:43:00.759Z,41.40
2017-09-19T01:45:28.357Z,41.20
2017-09-19T01:47:55.959Z,41.30
2017-09-19T01:50:24.315Z,41.40
2017-09-19T01:52:51.947Z,41.30
2017-09-19T01:55:19.556Z,41.40
2017-09-19T01:57:47.953Z,41.10
2017-09-19T02:00:15.601Z,41.20
2017-09-19T02:02:43.967Z,41.20
2017-09-19T02:05:11.551Z,41.20
2017-09-19T02:07:39.160Z,41.10
2017-09-19T02:10:06.793Z,41.10
2017-09-19T02:12:34.401Z,41.20
2017-09-19T02:15:01.969Z,41.20
2017-09-19T02:17:29.565Z,41.20
2017-09-19T02:19:57.132Z,41.20
2017-09-19T02:22:24.779Z,40.90
2017-09-19T02:24:52.350Z,41.10
2017-09-19T02:27:19.933Z,41.10
2017-09-19T02:29:47.550Z,41.10
2017-09-19T02:32:15.933Z,41.00
2017-09-19T02:34:43.570Z,41.10
2017-09-19T02:37:11.141Z,41.10
2017-09-19T02:39:39.540Z,40.90
2017-09-19T02:42:07.122Z,41.00
2017-09-19T02:44:34.725Z,41.10
2017-09-19T02:47:02.423Z,41.10
2017-09-19T02:49:30.047Z,41.10
2017-09-19T02:51:57.621Z,41.10
2017-09-19T02:54:25.969Z,41.10
2017-09-19T02:56:53.596Z,41.20
2017-09-19T02:59:21.183Z,41.00
2017-09-19T03:01:48.795Z,41.00
2017-09-19T03:04:16.374Z,41.00
2017-09-19T03:06:44.027Z,41.10
2017-09-19T03:09:11.667Z,41.20
2017-09-19T03:11:40.051Z,41.20
2017-09-19T03:14:08.387Z,41.20
2017-09-19T03:16:35.991Z,41.30
2017-09-19T03:19:04.383Z,41.20
2017-09-19T03:21:31.984Z,41.20
2017-09-19T03:23:59.612Z,41.30
2017-09-19T03:26:27.269Z,41.30
2017-09-19T03:28:54.845Z,41.20
2017-09-19T03:31:22.465Z,41.00
2017-09-19T03:33:50.805Z,40.90
2017-09-19T03:36:18.377Z,40.90
2017-09-19T03:38:46.010Z,41.00
2017-09-19T03:41:13.593Z,41.00
2017-09-19T03:43:41.189Z,41.10
2017-09-19T03:46:09.578Z,41.00
2017-09-19T03:48:37.206Z,41.00
2017-09-19T03:51:04.923Z,41.10
2017-09-19T03:53:32.513Z,41.10
2017-09-19T03:56:00.144Z,41.10
2017-09-19T03:58:27.769Z,41.10
2017-09-19T04:00:56.451Z,41.10
2017-09-19T04:03:24.778Z,41.00
2017-09-19T04:05:52.415Z,41.10
2017-09-19T04:08:20.021Z,40.90
2017-09-19T04:10:47.611Z,40.90
2017-09-19T04:13:16.145Z,41.10
2017-09-19T04:15:43.746Z,41.20
2017-09-19T04:18:12.257Z,41.10
2017-09-19T04:20:39.817Z,41.10
2017-09-19T04:23:07.441Z,41.20
2017-09-19T04:25:35.791Z,41.20
2017-09-19T04:28:03.351Z,41.20
2017-09-19T04:30:30.981Z,41.20
2017-09-19T04:32:58.573Z,41.80
2017-09-19T04:35:26.163Z,41.10
2017-09-19T04:37:53.791Z,41.00
2017-09-19T04:40:21.398Z,41.10
2017-09-19T04:42:49.756Z,41.10
2017-09-19T04:45:17.605Z,41.20
2017-09-19T04:47:45.173Z,41.30
2017-09-19T04:50:12.827Z,41.20
2017-09-19T04:52:40.403Z,41.20
2017-09-19T04:55:08.189Z,41.20
2017-09-19T04:57:36.586Z,41.30
2017-09-19T05:00:04.251Z,41.20
2017-09-19T05:02:31.913Z,41.20
2017-09-19T05:04:59.667Z,41.10
2017-09-19T05:07:27.298Z,41.10
2017-09-19T05:09:55.689Z,41.10
2017-09-19T05:12:23.273Z,41.10
2017-09-19T05:14:50.832Z,41.10
2017-09-19T05:17:18.457Z,41.00
2017-09-19T05:19:46.848Z,40.90
2017-09-19T05:22:15.268Z,40.90
2017-09-19T05:24:42.852Z,41.00
2017-09-19T05:27:10.487Z,40.80
2017-09-19T05:29:38.140Z,41.10
2017-09-19T05:32:05.719Z,41.10
2017-09-19T05:34:33.337Z,41.10
2017-09-19T05:37:01.753Z,41.10
2017-09-19T05:39:29.475Z,41.20
2017-09-19T05:41:57.799Z,41.20
2017-09-19T05:44:25.367Z,41.30
2017-09-19T05:46:52.965Z,41.30
2017-09-19T05:49:20.583Z,41.20
2017-09-19T05:51:48.185Z,41.50
2017-09-19T05:54:15.825Z,41.50
2017-09-19T05:56:43.628Z,41.60
2017-09-19T05:59:11.957Z,41.70
2017-09-19T06:01:39.585Z,41.70
2017-09-19T06:04:07.179Z,41.70
2017-09-19T06:06:34.904Z,41.70
2017-09-19T06:09:14.357Z,41.90
2017-09-19T06:11:41.941Z,43.00
2017-09-19T06:14:09.559Z,44.90
2017-09-19T06:16:39.664Z,45.50
2017-09-19T06:19:08.183Z,45.30
2017-09-19T06:21:35.751Z,45.30
2017-09-19T06:24:03.307Z,46.00
2017-09-19T06:26:30.960Z,46.10
2017-09-19T06:28:58.570Z,46.20
2017-09-19T06:31:26.186Z,46.20
2017-09-19T06:33:53.808Z,46.20
2017-09-19T06:36:22.147Z,46.20
2017-09-19T06:38:49.769Z,46.20
2017-09-19T06:41:17.440Z,46.20
2017-09-19T06:43:46.157Z,46.20
2017-09-19T06:46:13.791Z,45.90
2017-09-19T06:48:41.419Z,45.90
2017-09-19T06:51:09.755Z,45.70
2017-09-19T06:53:37.413Z,45.70
2017-09-19T06:56:05.053Z,45.80
2017-09-19T06:58:32.640Z,46.00
2017-09-19T07:01:00.263Z,46.10
2017-09-19T07:03:27.905Z,45.90
2017-09-19T07:05:56.255Z,45.90
2017-09-19T07:08:23.827Z,46.00
2017-09-19T07:10:52.198Z,45.50
2017-09-19T07:13:20.762Z,45.50
2017-09-19T07:15:48.454Z,45.50
2017-09-19T07:18:16.813Z,45.40
2017-09-19T07:20:44.437Z,45.40
2017-09-19T07:23:12.012Z,45.30
2017-09-19T07:25:39.606Z,45.20
2017-09-19T07:28:07.243Z,44.90
2017-09-19T07:30:34.967Z,44.80
2017-09-19T07:33:02.529Z,44.60
2017-09-19T07:35:30.117Z,44.50
2017-09-19T07:37:57.712Z,44.50
2017-09-19T07:40:25.371Z,44.60
2017-09-19T07:42:52.968Z,44.60
2017-09-19T07:45:20.599Z,44.60
2017-09-19T07:47:48.229Z,44.30
2017-09-19T07:50:15.807Z,44.90
2017-09-19T07:52:43.379Z,44.10
2017-09-19T07:55:11.041Z,44.00
2017-09-19T07:57:38.615Z,44.30
2017-09-19T08:00:07.259Z,43.40
2017-09-19T08:02:34.877Z,43.70
2017-09-19T08:05:02.447Z,43.50
2017-09-19T08:07:30.267Z,43.40
2017-09-19T08:09:57.875Z,43.10
2017-09-19T08:12:25.467Z,43.10
2017-09-19T08:14:53.097Z,42.90
2017-09-19T08:17:20.683Z,42.90
2017-09-19T08:19:48.315Z,42.80
2017-09-19T08:22:15.979Z,42.80
2017-09-19T08:24:43.599Z,42.60
2017-09-19T08:27:11.187Z,42.50
2017-09-19T08:29:38.779Z,42.30
2017-09-19T08:32:06.405Z,42.20
2017-09-19T08:34:34.053Z,42.00
2017-09-19T08:37:02.715Z,41.70
2017-09-19T08:39:30.357Z,41.60
2017-09-19T08:41:57.977Z,41.70
2017-09-19T08:44:25.560Z,41.40
2017-09-19T08:46:53.177Z,41.40
2017-09-19T08:49:21.621Z,40.60
2017-09-19T08:51:49.233Z,40.90
2017-09-19T08:54:16.811Z,40.60
2017-09-19T08:56:44.401Z,40.60
2017-09-19T08:59:11.989Z,40.60
2017-09-19T09:01:40.133Z,40.60
2017-09-19T09:04:07.713Z,40.60
2017-09-19T09:06:35.333Z,40.60
2017-09-19T09:09:02.953Z,40.70
2017-09-19T09:11:31.334Z,40.70
2017-09-19T09:13:59.827Z,40.70
2017-09-19T09:16:27.416Z,40.70
2017-09-19T09:18:54.995Z,40.70
2017-09-19T09:21:22.639Z,40.70
2017-09-19T09:23:50.245Z,40.70
2017-09-19T09:26:18.581Z,40.60
2017-09-19T09:28:46.213Z,40.60
2017-09-19T09:31:13.833Z,40.70
2017-09-19T09:33:41.579Z,40.70
2017-09-19T09:36:09.170Z,40.70
2017-09-19T09:38:37.592Z,40.70
2017-09-19T09:41:05.177Z,40.60
2017-09-19T09:43:32.768Z,40.70
2017-09-19T09:46:00.409Z,40.70
2017-09-19T09:48:28.018Z,40.70
2017-09-19T09:50:55.596Z,40.70
2017-09-19T09:53:23.227Z,40.70
2017-09-19T09:55:51.565Z,40.70
2017-09-19T09:58:19.208Z,40.70
2017-09-19T10:00:46.861Z,40.80
2017-09-19T10:03:14.479Z,40.70
2017-09-19T10:05:42.123Z,40.70
2017-09-19T10:08:09.725Z,40.70
2017-09-19T10:10:37.369Z,40.60
2017-09-19T10:13:05.019Z,40.70
2017-09-19T10:15:32.605Z,40.70
2017-09-19T10:18:01.250Z,40.70
2017-09-19T10:20:28.927Z,40.70
2017-09-19T10:22:57.313Z,41.40
2017-09-19T10:25:25.811Z,40.70
2017-09-19T10:27:53.397Z,40.70
2017-09-19T10:30:21.139Z,40.70
2017-09-19T10:32:48.747Z,40.70
2017-09-19T10:35:16.381Z,40.80
2017-09-19T10:37:44.584Z,40.70
2017-09-19T10:40:12.243Z,40.80
2017-09-19T10:42:39.827Z,41.50
2017-09-19T10:45:07.521Z,41.00
2017-09-19T10:50:09.031Z,41.00
2017-09-19T10:52:36.721Z,41.20
2017-09-19T10:55:04.342Z,41.20
2017-09-19T10:57:31.945Z,42.20
2017-09-19T11:00:00.357Z,39.60
2017-09-19T11:02:28.013Z,39.60
2017-09-19T11:04:55.643Z,38.90
2017-09-19T11:07:23.573Z,38.60
2017-09-19T11:09:51.237Z,38.40
2017-09-19T11:12:18.840Z,39.00
2017-09-19T11:14:47.371Z,35.30
2017-09-19T11:17:15.009Z,35.40
2017-09-19T11:19:42.611Z,35.10
2017-09-19T11:22:10.212Z,35.60
2017-09-19T11:24:38.609Z,37.30
2017-09-19T11:27:06.205Z,37.20
2017-09-19T11:29:33.803Z,36.90
2017-09-19T11:32:02.173Z,36.00
2017-09-19T11:34:29.771Z,36.00
2017-09-19T11:36:57.379Z,37.40
2017-09-19T11:39:25.021Z,35.70
2017-09-19T11:41:52.661Z,36.30
2017-09-19T11:44:20.253Z,36.00
2017-09-19T11:46:48.043Z,34.20
2017-09-19T11:49:15.608Z,33.50
2017-09-19T11:51:43.958Z,35.90
2017-09-19T11:54:11.573Z,35.90
2017-09-19T11:56:39.229Z,36.80
2017-09-19T11:59:06.796Z,37.30
2017-09-19T12:01:34.392Z,37.80
2017-09-19T12:04:02.033Z,38.10
2017-09-19T12:06:29.660Z,37.00
2017-09-19T12:08:58.019Z,37.80
2017-09-19T12:11:25.644Z,37.80
2017-09-19T12:13:53.245Z,38.80
2017-09-19T12:16:20.907Z,38.90
2017-09-19T12:18:48.499Z,38.70
2017-09-19T12:21:16.069Z,38.60
2017-09-19T12:23:43.687Z,39.50
2017-09-19T12:26:11.414Z,40.40
2017-09-19T12:28:38.993Z,39.80
2017-09-19T12:31:06.623Z,40.50
2017-09-19T12:33:34.239Z,40.90
2017-09-19T12:36:02.614Z,41.80
2017-09-19T12:38:31.075Z,40.90
2017-09-19T12:40:58.702Z,41.50
2017-09-19T12:43:26.319Z,41.00
2017-09-19T12:45:54.753Z,39.90
2017-09-19T12:48:22.372Z,39.90
2017-09-19T12:50:50.800Z,39.60
2017-09-19T12:53:18.435Z,39.60
2017-09-19T12:55:46.035Z,39.70
2017-09-19T12:58:13.663Z,39.80
2017-09-19T13:00:41.342Z,39.90
2017-09-19T13:03:08.964Z,40.00
2017-09-19T13:05:36.586Z,40.10
2017-09-19T13:08:04.205Z,40.10
2017-09-19T13:10:31.825Z,40.20
2017-09-19T13:12:59.466Z,40.10
2017-09-19T13:15:27.102Z,40.30
2017-09-19T13:17:54.778Z,40.20
2017-09-19T13:20:22.517Z,40.30
2017-09-19T13:22:50.104Z,40.30
2017-09-19T13:25:17.845Z,40.40
2017-09-19T13:27:45.488Z,40.30
2017-09-19T13:30:13.097Z,40.40
2017-09-19T13:32:52.636Z,40.40
2017-09-19T13:35:20.214Z,40.50
2017-09-19T13:37:48.581Z,40.60
2017-09-19T13:40:16.232Z,40.50
2017-09-19T13:42:43.837Z,40.60
2017-09-19T13:45:12.247Z,40.70
2017-09-19T13:47:39.837Z,40.60
2017-09-19T13:50:07.438Z,40.60
2017-09-19T13:52:35.794Z,40.70
2017-09-19T13:55:03.462Z,40.70
2017-09-19T13:57:31.881Z,40.70
2017-09-19T13:59:59.517Z,40.70
2017-09-19T14:02:27.875Z,40.70
2017-09-19T14:04:55.631Z,40.70
2017-09-19T14:07:23.332Z,40.80
2017-09-19T14:09:50.908Z,40.80
2017-09-19T14:12:19.358Z,40.80
2017-09-19T14:14:47.752Z,40.80
2017-09-19T14:17:15.338Z,40.80
2017-09-19T14:19:42.942Z,40.70
2017-09-19T14:22:10.564Z,40.70
2017-09-19T14:24:38.414Z,40.80
2017-09-19T14:27:06.025Z,40.70
2017-09-19T14:29:33.770Z,40.70
2017-09-19T14:32:01.391Z,40.70
2017-09-19T14:34:29.029Z,40.60
2017-09-19T14:36:57.432Z,40.70
2017-09-19T14:39:25.008Z,40.70
2017-09-19T14:41:52.653Z,40.70
2017-09-19T14:44:20.240Z,40.70
2017-09-19T14:46:47.841Z,40.70
2017-09-19T14:49:16.368Z,40.80
2017-09-19T14:51:43.983Z,40.70
2017-09-19T14:54:12.354Z,40.80
2017-09-19T14:56:39.976Z,40.70
2017-09-19T14:59:07.622Z,40.80
2017-09-19T15:01:35.234Z,41.40
2017-09-19T15:04:02.859Z,40.80
2017-09-19T15:06:30.462Z,40.80
2017-09-19T15:08:58.113Z,40.80
2017-09-19T15:11:25.752Z,40.90
2017-09-19T15:13:53.357Z,41.00
2017-09-19T15:16:21.699Z,41.00
2017-09-19T15:18:49.318Z,41.00
2017-09-19T15:21:17.273Z,41.00
2017-09-19T15:23:44.855Z,41.00
2017-09-19T15:26:12.510Z,41.00
2017-09-19T15:28:40.132Z,41.00
2017-09-19T15:31:08.492Z,41.90
2017-09-19T15:33:36.134Z,41.00
2017-09-19T15:36:03.715Z,41.00
2017-09-19T15:38:31.342Z,41.00
2017-09-19T15:40:59.170Z,41.10
2017-09-19T15:43:27.558Z,41.00
2017-09-19T15:45:55.932Z,41.00
2017-09-19T15:48:24.366Z,41.00
2017-09-19T15:50:52.094Z,41.00
2017-09-19T15:53:19.677Z,41.00
2017-09-19T15:55:47.318Z,41.00
2017-09-19T15:58:14.888Z,41.00
2017-09-19T16:00:42.647Z,41.00
2017-09-19T16:03:10.268Z,40.90
2017-09-19T16:05:37.866Z,41.00
2017-09-19T16:08:05.564Z,41.50
2017-09-19T16:10:33.194Z,40.90
2017-09-19T16:13:00.816Z,40.90
2017-09-19T16:15:28.465Z,40.90
2017-09-19T16:17:57.547Z,40.90
2017-09-19T16:20:25.342Z,40.90
2017-09-19T16:22:53.692Z,40.90
2017-09-19T16:25:21.314Z,40.90
2017-09-19T16:27:48.949Z,40.90
2017-09-19T16:30:17.352Z,40.90
2017-09-19T16:32:44.975Z,40.90
2017-09-19T16:35:13.373Z,40.90
2017-09-19T16:37:41.774Z,40.90
2017-09-19T16:40:09.363Z,40.90
2017-09-19T16:42:36.965Z,40.90
2017-09-19T16:45:05.468Z,40.90
2017-09-19T16:47:33.079Z,40.80
2017-09-19T16:50:00.714Z,40.90
2017-09-19T16:52:28.354Z,40.90
2017-09-19T16:54:55.957Z,40.90
2017-09-19T16:57:23.686Z,40.80
2017-09-19T16:59:51.326Z,40.90
2017-09-19T17:02:19.717Z,40.90
2017-09-19T17:04:47.308Z,40.90
2017-09-19T17:07:14.952Z,40.80
2017-09-19T17:09:42.766Z,40.80
2017-09-19T17:12:11.133Z,40.40
2017-09-19T17:14:38.944Z,40.90
2017-09-19T17:17:06.523Z,40.80
2017-09-19T17:19:34.178Z,40.90
2017-09-19T17:22:01.921Z,40.90
2017-09-19T17:24:29.561Z,40.80
2017-09-19T17:26:57.938Z,40.80
2017-09-19T17:29:26.331Z,40.60
2017-09-19T17:31:54.814Z,40.60
2017-09-19T17:34:23.185Z,40.50
2017-09-19T17:36:51.602Z,40.40
2017-09-19T17:39:19.322Z,40.70
2017-09-19T17:41:47.880Z,40.50
2017-09-19T17:44:15.472Z,40.50
2017-09-19T17:46:43.856Z,40.70
2017-09-19T17:49:12.204Z,40.60
2017-09-19T17:51:41.402Z,40.60
2017-09-19T17:54:09.125Z,40.70
2017-09-19T17:56:36.720Z,40.70
2017-09-19T17:59:04.357Z,40.60
2017-09-19T18:01:31.974Z,40.70
2017-09-19T18:03:59.635Z,40.50
2017-09-19T18:06:28.254Z,40.70
2017-09-19T18:08:55.865Z,40.70
2017-09-19T18:11:23.512Z,40.70
2017-09-19T18:13:51.126Z,40.80
2017-09-19T18:16:18.739Z,40.20
2017-09-19T18:18:46.362Z,39.40
2017-09-19T18:21:14.017Z,39.30
2017-09-19T18:23:41.659Z,39.00
2017-09-19T18:26:10.303Z,39.80
2017-09-19T18:28:37.991Z,39.90
2017-09-19T18:31:06.368Z,39.80
2017-09-19T18:33:34.730Z,39.70
2017-09-19T18:36:03.875Z,39.70
2017-09-19T18:38:31.474Z,39.80
2017-09-19T18:40:59.116Z,39.80
2017-09-19T18:43:26.715Z,40.00
2017-09-19T18:45:54.317Z,40.10
2017-09-19T18:48:21.963Z,40.10
2017-09-19T18:50:49.546Z,40.20
2017-09-19T18:53:17.171Z,40.30
2017-09-19T18:55:45.526Z,40.40
2017-09-19T18:58:13.163Z,40.60
2017-09-19T19:00:40.976Z,40.70
2017-09-19T19:03:09.323Z,40.80
2017-09-19T19:05:36.947Z,40.80
2017-09-19T19:08:04.594Z,40.70
2017-09-19T19:10:32.189Z,40.70
2017-09-19T19:12:59.868Z,40.70
2017-09-19T19:15:27.543Z,40.70
2017-09-19T19:17:56.023Z,41.40
2017-09-19T19:20:23.674Z,40.70
2017-09-19T19:22:51.264Z,40.60
2017-09-19T19:25:19.625Z,40.70
2017-09-19T19:27:47.409Z,40.70
2017-09-19T19:30:15.031Z,40.60
2017-09-19T19:32:42.627Z,40.70
2017-09-19T19:35:11.027Z,40.70
2017-09-19T19:37:38.640Z,40.70
2017-09-19T19:40:06.329Z,40.70
2017-09-19T19:42:34.739Z,40.70
2017-09-19T19:45:02.329Z,40.70
2017-09-19T19:47:29.973Z,40.70
2017-09-19T19:49:57.595Z,40.70
2017-09-19T19:52:25.997Z,40.70
2017-09-19T19:54:53.606Z,40.70
2017-09-19T19:57:21.219Z,40.70
2017-09-19T19:59:49.030Z,40.70
2017-09-19T20:02:16.621Z,40.70
2017-09-19T20:04:45.036Z,40.70
2017-09-19T20:07:12.650Z,40.70
2017-09-19T20:09:41.076Z,40.70
2017-09-19T20:12:08.841Z,40.70
2017-09-19T20:14:37.262Z,40.70
2017-09-19T20:17:05.189Z,40.70
2017-09-19T20:19:32.847Z,40.70
2017-09-19T20:22:00.461Z,40.70
2017-09-19T20:24:28.095Z,40.70
2017-09-19T20:26:56.267Z,40.80
2017-09-19T20:29:23.903Z,40.70
2017-09-19T20:31:53.020Z,40.70
2017-09-19T20:34:20.708Z,40.70
2017-09-19T20:36:48.322Z,40.70
2017-09-19T20:41:50.222Z,40.70
2017-09-19T20:44:17.856Z,40.70
2017-09-19T20:46:45.458Z,40.70
2017-09-19T20:49:13.085Z,40.70
2017-09-19T20:51:40.744Z,40.70
2017-09-19T20:54:08.372Z,40.70
2017-09-19T20:56:36.720Z,40.70
2017-09-19T20:59:04.388Z,40.70
2017-09-19T21:01:31.989Z,40.70
2017-09-19T21:04:05.250Z,40.70
2017-09-19T21:06:38.834Z,40.70
2017-09-19T21:09:12.102Z,40.70
2017-09-19T21:11:45.324Z,40.70
2017-09-19T21:14:18.650Z,40.70
2017-09-19T21:16:52.572Z,40.70
2017-09-19T21:19:26.152Z,41.30
2017-09-19T21:21:53.777Z,40.70
2017-09-19T21:24:21.392Z,40.70
2017-09-19T21:26:49.000Z,40.70
2017-09-19T21:29:16.586Z,40.70
2017-09-19T21:31:44.248Z,40.70
2017-09-19T21:34:12.654Z,40.70
2017-09-19T21:36:40.295Z,40.70
2017-09-19T21:39:08.669Z,40.70
2017-09-19T21:41:37.072Z,40.70
2017-09-19T21:44:04.818Z,40.70
2017-09-19T21:49:07.076Z,40.70
2017-09-19T21:51:34.681Z,40.80
2017-09-19T21:54:02.267Z,41.00
2017-09-19T21:56:29.901Z,41.00
2017-09-19T21:58:57.529Z,40.90
2017-09-19T22:01:25.148Z,40.90
2017-09-19T22:03:52.757Z,40.90
2017-09-19T22:06:20.402Z,40.90
2017-09-19T22:08:48.012Z,40.80
2017-09-19T22:11:15.639Z,40.70
2017-09-19T22:13:43.311Z,40.80
2017-09-19T22:16:11.136Z,41.00
2017-09-19T22:18:38.874Z,41.60
2017-09-19T22:21:06.660Z,40.70
2017-09-19T22:23:34.459Z,40.70
2017-09-19T22:26:02.073Z,41.00
2017-09-19T22:28:29.700Z,41.50
2017-09-19T22:30:58.070Z,41.10
2017-09-19T22:33:25.680Z,41.20
2017-09-19T22:35:53.322Z,41.30
2017-09-19T22:38:20.898Z,41.40
2017-09-19T22:40:48.720Z,41.30
2017-09-19T22:43:17.086Z,41.30
2017-09-19T22:45:44.678Z,41.40
2017-09-19T22:48:12.297Z,41.50
2017-09-19T22:50:39.883Z,41.50
2017-09-19T22:53:08.557Z,41.60
2017-09-19T22:55:36.997Z,41.60
2017-09-19T22:58:04.652Z,41.50
2017-09-19T23:00:32.562Z,41.60
2017-09-19T23:03:01.199Z,41.60
2017-09-19T23:05:29.114Z,41.70
2017-09-19T23:07:56.718Z,41.60
2017-09-19T23:10:24.381Z,41.60
2017-09-19T23:12:52.203Z,41.70
2017-09-19T23:15:19.814Z,41.70
2017-09-19T23:17:47.607Z,41.70
2017-09-19T23:20:15.222Z,41.70
2017-09-19T23:22:42.956Z,41.70
2017-09-19T23:25:11.372Z,41.70
2017-09-19T23:27:39.853Z,41.60
2017-09-19T23:30:07.754Z,41.60
2017-09-19T23:32:35.331Z,42.00
2017-09-19T23:35:04.264Z,41.70
2017-09-19T23:37:31.858Z,41.80
2017-09-19T23:39:59.605Z,41.70
2017-09-19T23:42:27.235Z,41.70
2017-09-19T23:44:54.824Z,41.60
2017-09-19T23:47:22.446Z,41.60
2017-09-19T23:49:50.848Z,41.70
2017-09-19T23:52:18.770Z,41.70
2017-09-19T23:54:46.378Z,41.70
2017-09-19T23:57:14.131Z,41.50
2017-09-19T23:59:42.658Z,41.60
